Results: 2019 ITU World Triathlon Mixed Relay Series Tokyo | Mixed Relay
Odaiba Marin Park, Tokyo, Japan • 18 Aug, 2019
Pos Team Country Start
Num
Time Leg 1 Leg 2 Leg 3 Leg 4
1 Team I France FRA 2 01:26:33 00:22.12 00:21:02 00:22:33 00:20:46
2 Team I Great Britain GBR 6 01:26:33 00:21:50 00:21:09 00:22:48 00:20:46
3 Team I United States USA 4 01:27:09 00:22:13 00:21:02 00:22:37 00:21:17
4 Team I Italy ITA 14 01:27:35 00:22:28 00:20:49 00:22:57 00:21:21
5 Team I Australia AUS 1 01:27:40 00:22:47 00:20:45 00:23:02 00:21:06
6 Team I Belgium BEL 12 01:28:16 00:22:23 00:20:51 00:23:57 00:21:05
7 Team I New Zealand NZL 3 01:28:19 00:22:58 00:20:43 00:23:17 00:21:21
8 Team I South Africa RSA 21 01:28:49 00:23:00 00:20:29 00:24:30 00:20:50
9 Team I Hungary HUN 15 01:28:56 00:22:53 00:20:44 00:24:18 00:21:01
10 Team I Germany GER 5 01:29:01 00:22:12 00:21:59 00:23:56 00:20:54
11 Team I Japan JPN 11 01:29:06 00:22:38 00:20:47 00:24:05 00:21:36
12 Team I Brazil BRA 18 01:29:47 00:22:29 00:21:23 00:23:54 00:22:01
13 Team I Netherlands NED 7 01:30:11 00:23:19 00:21:52 00:23:22 00:21:38
14 Team I Switzerland SUI 8 01:30:23 00:23:08 00:21:22 00:23:26 00:22:27
15 Team I Mexico MEX 17 01:30:36 00:22:59 00:21:31 00:24:19 00:21:47
16 Team I Canada CAN 9 01:30:56 00:23:37 00:21:12 00:23:59 00:22:08
17 Team I Spain ESP 10 01:33:24 00:22:57 00:21:33 00:24:14 00:24:40
DNS Team I Austria AUT 20 DNS 00:00:00 00:00:00 00:00:00 00:00:00
LAP Team I Portugal POR 16 LAP 00:24:25 00:21:34 00:26:07 00:00:00
LAP Team I Russia RUS 19 LAP 00:24:43 00:21:33 00:24:41 00:00:00
LAP Team I China CHN 22 LAP 00:24:05 00:25:06 00:00:00 00:00:00
LAP Team I Ireland IRL 23 LAP 00:24:37 00:22:01 00:26:42 00:00:00
Program notes:

Technical Delegates: Jorge Garcia/ESP, Thanos Nikopoulos/GRE, Melody Tan/MAS Head Referee: Alan Ma/MAC. Competition Jury: Melody Tan/MAS, Antonio Fernandez/ESP, Shin Otsuka/JPN
Distances: Swim 300 m (1 lap),Bike 7.4 km (2 laps) Run 2 km (2 laps)
Water Temperature 29.0 ºC, Air Temperature 29.5ºC. Humidity 69.7%. WBGT 28.1 Wetsuits are not allowed.
Team #17 Mexico served a 10 seconds penalty during the run segment of the second leg.